createdAt,value
2023-02-22T00:02:29.047Z,13.13
2023-02-22T00:05:33.363Z,16.03
2023-02-22T00:08:37.986Z,18.33
2023-02-22T00:11:46.428Z,19.47
2023-02-22T00:14:51.113Z,13.80
2023-02-22T00:17:55.357Z,19.03
2023-02-22T00:21:01.651Z,21.20
2023-02-22T00:24:22.711Z,17.23
2023-02-22T00:27:26.964Z,10.20
2023-02-22T00:30:33.758Z,24.63
2023-02-22T00:33:37.535Z,14.27
2023-02-22T00:36:46.829Z,16.50
2023-02-22T00:39:50.115Z,12.17
2023-02-22T00:42:53.345Z,8.00
2023-02-22T00:45:57.171Z,11.13
2023-02-22T00:49:00.208Z,9.80
2023-02-22T00:52:05.203Z,12.33
2023-02-22T00:55:10.635Z,13.77
2023-02-22T00:58:13.852Z,6.93
2023-02-22T01:01:17.345Z,12.17
2023-02-22T01:04:20.447Z,7.83
2023-02-22T01:07:24.874Z,11.47
2023-02-22T01:10:29.844Z,8.50
2023-02-22T01:13:34.165Z,9.47
2023-02-22T01:16:37.369Z,11.67
2023-02-22T01:19:42.426Z,18.33
2023-02-22T01:22:48.736Z,10.17
2023-02-22T01:25:51.786Z,8.13
2023-02-22T01:28:54.733Z,13.37
2023-02-22T01:31:57.956Z,13.53
2023-02-22T01:35:00.965Z,11.37
2023-02-22T01:38:05.422Z,20.13
2023-02-22T01:41:08.933Z,13.77
2023-02-22T01:44:23.202Z,9.77
2023-02-22T01:47:26.171Z,7.93
2023-02-22T01:50:30.176Z,5.23
2023-02-22T01:53:38.394Z,7.17
2023-02-22T01:56:47.133Z,11.20
2023-02-22T01:59:54.453Z,10.43
2023-02-22T02:03:02.335Z,9.97
2023-02-22T02:06:11.813Z,8.23
2023-02-22T02:09:22.692Z,6.70
2023-02-22T02:12:26.305Z,8.40
2023-02-22T02:15:31.869Z,22.87
2023-02-22T02:18:35.221Z,11.93
2023-02-22T02:22:05.603Z,15.40
2023-02-22T02:25:56.525Z,16.70
2023-02-22T02:29:30.868Z,11.97
2023-02-22T02:32:44.138Z,8.70
2023-02-22T02:35:55.190Z,12.40
2023-02-22T02:39:05.114Z,10.73
2023-02-22T02:42:12.923Z,10.63
2023-02-22T02:45:20.593Z,10.63
2023-02-22T02:48:28.631Z,13.73
2023-02-22T02:51:38.277Z,15.57
2023-02-22T02:54:41.756Z,10.93
2023-02-22T02:57:44.949Z,11.93
2023-02-22T03:00:49.027Z,9.57
2023-02-22T03:04:05.833Z,5.73
2023-02-22T03:07:34.563Z,8.80
2023-02-22T03:10:50.367Z,10.77
2023-02-22T03:14:02.889Z,11.20
2023-02-22T03:17:19.068Z,8.97
2023-02-22T03:20:31.874Z,11.17
2023-02-22T03:23:39.491Z,10.73
2023-02-22T03:26:46.287Z,9.67
2023-02-22T03:29:53.461Z,12.77
2023-02-22T03:33:01.089Z,12.73
2023-02-22T03:36:14.281Z,14.47
2023-02-22T03:39:20.478Z,14.60
2023-02-22T03:42:28.265Z,16.53
2023-02-22T03:45:35.918Z,10.67
2023-02-22T03:48:45.103Z,12.20
2023-02-22T03:51:49.529Z,14.73
2023-02-22T03:54:53.585Z,13.20
2023-02-22T03:57:59.486Z,19.73
2023-02-22T04:01:03.530Z,13.13
2023-02-22T04:04:06.802Z,15.80
2023-02-22T04:07:11.104Z,19.80
2023-02-22T04:10:14.938Z,17.37
2023-02-22T04:13:17.895Z,10.93
2023-02-22T04:16:20.996Z,17.47
2023-02-22T04:19:23.926Z,14.37
2023-02-22T04:22:28.311Z,12.73
2023-02-22T04:25:33.684Z,18.77
2023-02-22T04:28:36.776Z,10.40
2023-02-22T04:31:43.492Z,8.87
2023-02-22T04:34:46.450Z,7.27
2023-02-22T04:38:09.231Z,11.03
2023-02-22T04:41:12.380Z,12.27
2023-02-22T04:44:15.448Z,7.10
2023-02-22T04:47:18.722Z,10.53
2023-02-22T04:50:21.916Z,9.63
2023-02-22T04:53:30.305Z,8.77
2023-02-22T04:56:33.281Z,8.83
2023-02-22T04:59:36.332Z,7.83
2023-02-22T05:02:40.178Z,12.77
2023-02-22T05:05:43.294Z,14.03
2023-02-22T05:08:47.994Z,7.63
2023-02-22T05:11:50.972Z,7.20
2023-02-22T05:14:54.005Z,7.23
2023-02-22T05:17:56.982Z,11.87
2023-02-22T05:20:59.964Z,11.20
2023-02-22T05:24:04.574Z,13.43
2023-02-22T05:27:07.503Z,12.93
2023-02-22T05:30:13.017Z,11.77
2023-02-22T05:33:16.031Z,10.53
2023-02-22T05:36:19.004Z,14.90
2023-02-22T05:39:23.420Z,18.00
2023-02-22T05:42:26.612Z,11.63
2023-02-22T05:45:30.035Z,10.67
2023-02-22T05:48:33.059Z,19.50
2023-02-22T05:51:36.150Z,23.63
2023-02-22T05:54:40.587Z,16.00
2023-02-22T05:57:43.697Z,12.27
2023-02-22T06:00:47.058Z,14.70
2023-02-22T06:03:51.751Z,17.00
2023-02-22T06:06:54.859Z,16.23
2023-02-22T06:09:59.263Z,15.27
2023-02-22T06:13:03.354Z,19.90
2023-02-22T06:16:07.022Z,16.27
2023-02-22T06:19:10.126Z,17.00
2023-02-22T06:22:17.390Z,12.77
2023-02-22T06:25:25.084Z,13.17
2023-02-22T06:28:28.080Z,15.73
2023-02-22T06:31:31.691Z,25.63
2023-02-22T06:34:34.679Z,18.27
2023-02-22T06:37:38.881Z,22.13
2023-02-22T06:40:43.180Z,16.00
2023-02-22T06:43:48.741Z,23.10
2023-02-22T06:46:52.105Z,22.10
2023-02-22T06:49:55.488Z,17.60
2023-02-22T06:52:59.109Z,21.20
2023-02-22T06:56:03.619Z,19.83
2023-02-22T06:59:06.745Z,13.07
2023-02-22T07:02:11.610Z,15.07
2023-02-22T07:05:14.802Z,18.10
2023-02-22T07:08:17.765Z,23.37
2023-02-22T07:11:22.122Z,12.00
2023-02-22T07:14:25.546Z,10.93
2023-02-22T07:17:28.507Z,28.17
2023-02-22T07:20:32.488Z,18.30
2023-02-22T07:23:35.524Z,15.40
2023-02-22T07:26:43.466Z,17.67
2023-02-22T07:29:46.710Z,23.03
2023-02-22T07:32:49.711Z,20.30
2023-02-22T07:35:52.972Z,23.20
2023-02-22T07:38:56.154Z,22.20
2023-02-22T07:42:00.490Z,18.77
2023-02-22T07:45:03.694Z,26.80
2023-02-22T07:48:07.553Z,27.80
2023-02-22T07:51:11.180Z,28.53
2023-02-22T07:54:14.125Z,24.37
2023-02-22T07:57:19.192Z,19.57
2023-02-22T08:00:27.450Z,18.93
2023-02-22T08:03:34.342Z,20.70
2023-02-22T08:06:37.319Z,19.93
2023-02-22T08:09:40.542Z,27.70
2023-02-22T08:12:44.869Z,19.40
2023-02-22T08:15:48.410Z,19.20
2023-02-22T08:18:51.386Z,17.73
2023-02-22T08:21:54.304Z,14.50
2023-02-22T08:24:57.359Z,22.90
2023-02-22T08:28:04.757Z,16.43
2023-02-22T08:31:08.942Z,18.10
2023-02-22T08:34:11.914Z,25.43
2023-02-22T08:37:16.115Z,27.47
2023-02-22T08:40:21.305Z,18.30
2023-02-22T08:43:26.690Z,17.40
2023-02-22T08:46:29.876Z,27.47
2023-02-22T08:49:33.618Z,19.60
2023-02-22T08:52:36.644Z,22.97
2023-02-22T08:55:42.275Z,20.80
2023-02-22T08:58:46.849Z,22.87
2023-02-22T09:01:50.366Z,26.63
2023-02-22T09:04:53.314Z,19.97
2023-02-22T09:07:56.466Z,25.70
2023-02-22T09:10:59.385Z,18.67
2023-02-22T09:14:04.376Z,22.33
2023-02-22T09:17:07.604Z,20.57
2023-02-22T09:20:13.236Z,20.97
2023-02-22T09:23:16.289Z,22.23
2023-02-22T09:26:19.418Z,20.23
2023-02-22T09:29:25.096Z,25.13
2023-02-22T09:32:29.305Z,25.07
2023-02-22T09:35:36.215Z,18.93
2023-02-22T09:38:39.438Z,16.40
2023-02-22T09:41:52.300Z,17.73
2023-02-22T09:45:06.157Z,21.07
2023-02-22T09:48:21.794Z,23.97
2023-02-22T09:51:28.578Z,17.27
2023-02-22T09:54:39.184Z,14.73
2023-02-22T09:57:44.954Z,17.80
2023-02-22T10:00:53.890Z,19.07
2023-02-22T10:04:02.845Z,16.80
2023-02-22T10:07:18.281Z,9.17
2023-02-22T10:10:24.603Z,19.67
2023-02-22T10:13:42.047Z,8.53
2023-02-22T10:16:53.256Z,24.67
2023-02-22T10:20:09.520Z,21.40
2023-02-22T10:23:20.962Z,26.03
2023-02-22T10:26:27.897Z,14.60
2023-02-22T10:29:36.360Z,17.83
2023-02-22T10:32:45.459Z,12.17
2023-02-22T10:35:49.061Z,15.20
2023-02-22T10:38:56.289Z,15.43
2023-02-22T10:42:06.021Z,18.33
2023-02-22T10:45:22.790Z,17.07
2023-02-22T10:48:30.228Z,16.73
2023-02-22T10:51:35.617Z,14.07
2023-02-22T10:54:42.621Z,14.60
2023-02-22T10:57:48.537Z,9.40
2023-02-22T11:00:51.675Z,14.70
2023-02-22T11:04:06.273Z,15.67
2023-02-22T11:07:17.672Z,13.77
2023-02-22T11:10:32.307Z,17.67
2023-02-22T11:13:39.785Z,20.90
2023-02-22T11:16:48.555Z,19.83
2023-02-22T11:19:53.451Z,15.27
2023-02-22T11:22:59.976Z,12.43
2023-02-22T11:26:10.260Z,25.27
2023-02-22T11:29:32.961Z,13.90
2023-02-22T11:32:36.546Z,16.33
2023-02-22T11:35:52.676Z,15.53
2023-02-22T11:39:00.895Z,17.03
2023-02-22T11:42:23.093Z,17.87
2023-02-22T11:45:27.538Z,15.20
2023-02-22T11:48:34.696Z,19.20
2023-02-22T11:51:52.428Z,11.50
2023-02-22T11:55:05.440Z,11.23
2023-02-22T11:58:27.567Z,17.23
2023-02-22T12:01:39.606Z,14.13
2023-02-22T12:05:03.846Z,15.20
2023-02-22T12:08:20.496Z,20.13
2023-02-22T12:11:28.602Z,16.17
2023-02-22T12:14:39.831Z,13.83
2023-02-22T12:18:00.711Z,14.13
2023-02-22T12:21:08.185Z,17.67
2023-02-22T12:24:16.411Z,15.93
2023-02-22T12:27:27.226Z,20.00
2023-02-22T12:30:34.190Z,14.70
2023-02-22T12:33:47.451Z,15.63
2023-02-22T12:36:55.233Z,16.87
2023-02-22T12:40:09.157Z,13.77
2023-02-22T12:43:17.989Z,14.00
2023-02-22T12:46:25.398Z,14.50
2023-02-22T12:49:35.783Z,13.77
2023-02-22T12:52:45.493Z,12.87
2023-02-22T12:55:56.269Z,15.80
2023-02-22T12:59:08.325Z,16.67
2023-02-22T13:02:17.020Z,11.37
2023-02-22T13:05:20.999Z,13.47
2023-02-22T13:08:32.643Z,10.60
2023-02-22T13:11:43.605Z,13.63
2023-02-22T13:14:59.968Z,15.10
2023-02-22T13:18:13.590Z,9.77
2023-02-22T13:21:22.071Z,14.23
2023-02-22T13:24:30.535Z,13.23
2023-02-22T13:27:41.309Z,11.90
2023-02-22T13:30:50.933Z,14.10
2023-02-22T13:34:13.041Z,10.80
2023-02-22T13:37:45.923Z,12.90
2023-02-22T13:41:18.898Z,14.40
2023-02-22T13:44:54.151Z,12.03
2023-02-22T13:48:35.932Z,10.63
2023-02-22T13:51:47.901Z,15.57
2023-02-22T13:54:54.548Z,10.67
2023-02-22T13:58:03.704Z,13.73
2023-02-22T14:01:08.077Z,11.47
2023-02-22T14:04:38.247Z,13.97
2023-02-22T14:07:52.111Z,15.63
2023-02-22T14:10:56.552Z,15.47
2023-02-22T14:14:17.109Z,12.70
2023-02-22T14:17:27.117Z,7.57
2023-02-22T14:20:35.495Z,11.70
2023-02-22T14:23:40.789Z,12.77
2023-02-22T14:26:56.132Z,10.10
2023-02-22T14:30:01.601Z,11.43
2023-02-22T14:33:44.576Z,11.47
2023-02-22T14:36:53.076Z,7.60
2023-02-22T14:40:12.634Z,11.30
2023-02-22T14:43:19.974Z,7.67
2023-02-22T14:46:26.665Z,12.57
2023-02-22T14:49:39.416Z,14.87
2023-02-22T14:52:56.747Z,13.17
2023-02-22T14:56:03.381Z,10.27
2023-02-22T14:59:19.558Z,10.67
2023-02-22T15:02:25.955Z,10.03
2023-02-22T15:05:38.491Z,9.07
2023-02-22T15:08:42.427Z,11.33
2023-02-22T15:11:46.157Z,13.50
2023-02-22T15:14:49.776Z,11.43
2023-02-22T15:17:57.290Z,10.70
2023-02-22T15:21:08.569Z,8.93
2023-02-22T15:24:12.258Z,11.33
2023-02-22T15:27:19.442Z,13.20
2023-02-22T15:30:27.688Z,10.47
2023-02-22T15:33:38.063Z,7.90
2023-02-22T15:36:45.801Z,9.90
2023-02-22T15:39:48.716Z,10.27
2023-02-22T15:42:54.246Z,13.47
2023-02-22T15:45:58.294Z,14.20
2023-02-22T15:49:09.655Z,10.83
2023-02-22T15:52:25.510Z,12.27
2023-02-22T15:55:36.456Z,11.90
2023-02-22T15:58:41.245Z,14.73
2023-02-22T16:01:47.023Z,13.50
2023-02-22T16:05:01.580Z,11.43
2023-02-22T16:08:17.953Z,9.83
2023-02-22T16:11:29.822Z,14.50
2023-02-22T16:14:43.980Z,12.57
2023-02-22T16:18:01.377Z,13.47
2023-02-22T16:21:09.855Z,10.17
2023-02-22T16:24:27.273Z,13.20
2023-02-22T16:27:30.213Z,15.17
2023-02-22T16:30:35.823Z,18.10
2023-02-22T16:33:41.373Z,10.20
2023-02-22T16:36:47.630Z,16.37
2023-02-22T16:39:53.064Z,12.03
2023-02-22T16:42:56.241Z,13.93
2023-02-22T16:46:01.549Z,9.73
2023-02-22T16:49:05.015Z,17.40
2023-02-22T16:52:08.789Z,21.37
2023-02-22T16:55:17.094Z,9.17
2023-02-22T16:58:20.310Z,8.73
2023-02-22T17:01:24.359Z,10.30
2023-02-22T17:04:29.078Z,9.37
2023-02-22T17:07:32.036Z,11.57
2023-02-22T17:10:36.807Z,17.67
2023-02-22T17:13:41.444Z,12.03
2023-02-22T17:16:47.195Z,15.90
2023-02-22T17:19:50.129Z,9.47
2023-02-22T17:22:53.108Z,10.83
2023-02-22T17:25:59.916Z,13.50
2023-02-22T17:29:02.942Z,13.67
2023-02-22T17:32:06.350Z,14.43
2023-02-22T17:35:09.840Z,12.50
2023-02-22T17:38:12.762Z,10.77
2023-02-22T17:41:17.116Z,9.00
2023-02-22T17:44:20.092Z,9.90
2023-02-22T17:47:23.139Z,13.13
2023-02-22T17:50:27.457Z,16.37
2023-02-22T17:53:30.517Z,16.10
2023-02-22T17:56:34.915Z,9.63
2023-02-22T17:59:40.245Z,14.53
2023-02-22T18:02:44.835Z,8.33
2023-02-22T18:05:50.216Z,12.53
2023-02-22T18:08:55.982Z,6.97
2023-02-22T18:12:00.953Z,7.53
2023-02-22T18:15:04.071Z,11.17
2023-02-22T18:18:07.545Z,10.07
2023-02-22T18:21:11.103Z,11.47
2023-02-22T18:24:14.116Z,10.63
2023-02-22T18:27:19.894Z,12.97
2023-02-22T18:30:24.320Z,7.17
2023-02-22T18:33:27.519Z,16.13
2023-02-22T18:36:32.384Z,12.77
2023-02-22T18:39:42.734Z,11.40
2023-02-22T18:42:47.649Z,8.97
2023-02-22T18:45:50.570Z,13.37
2023-02-22T18:48:55.561Z,11.03
2023-02-22T18:51:59.565Z,12.50
2023-02-22T18:55:02.662Z,8.73
2023-02-22T18:58:09.846Z,8.80
2023-02-22T19:01:17.346Z,12.97
2023-02-22T19:04:21.672Z,15.23
2023-02-22T19:07:26.310Z,8.40
2023-02-22T19:10:29.621Z,12.70
2023-02-22T19:13:34.127Z,11.90
2023-02-22T19:16:37.073Z,13.83
2023-02-22T19:19:40.359Z,10.50
2023-02-22T19:22:45.612Z,11.03
2023-02-22T19:25:48.669Z,9.63
2023-02-22T19:28:54.299Z,7.20
2023-02-22T19:31:57.323Z,11.27
2023-02-22T19:35:06.693Z,10.27
2023-02-22T19:38:10.340Z,10.30
2023-02-22T19:41:18.215Z,12.30
2023-02-22T19:44:23.359Z,9.60
2023-02-22T19:47:26.388Z,16.67
2023-02-22T19:50:29.473Z,8.97
2023-02-22T19:53:32.702Z,7.93
2023-02-22T19:56:36.256Z,12.93
2023-02-22T19:59:40.749Z,13.80
2023-02-22T20:02:43.778Z,10.27
2023-02-22T20:05:46.923Z,17.43
2023-02-22T20:08:51.049Z,9.83
2023-02-22T20:11:54.137Z,17.30
2023-02-22T20:15:00.159Z,15.60
2023-02-22T20:18:03.205Z,11.43
2023-02-22T20:21:09.489Z,13.40
2023-02-22T20:24:18.264Z,8.40
2023-02-22T20:27:21.335Z,8.70
2023-02-22T20:30:26.127Z,10.97
2023-02-22T20:33:29.769Z,13.40
2023-02-22T20:36:35.178Z,13.63
2023-02-22T20:39:38.150Z,16.73
2023-02-22T20:42:41.588Z,12.30
2023-02-22T20:45:45.944Z,14.67
2023-02-22T20:48:49.092Z,11.70
2023-02-22T20:51:52.170Z,13.70
2023-02-22T20:54:56.506Z,10.90
2023-02-22T20:57:59.761Z,14.13
2023-02-22T21:01:07.513Z,16.30
2023-02-22T21:04:12.159Z,13.17
2023-02-22T21:07:15.351Z,17.87
2023-02-22T21:10:20.955Z,15.53
2023-02-22T21:13:23.994Z,13.63
2023-02-22T21:16:30.354Z,13.10
2023-02-22T21:19:33.465Z,15.47
2023-02-22T21:22:38.010Z,15.93
2023-02-22T21:25:49.041Z,14.63
2023-02-22T21:28:52.400Z,14.87
2023-02-22T21:31:57.717Z,14.73
2023-02-22T21:35:00.854Z,20.53
2023-02-22T21:38:04.072Z,21.13
2023-02-22T21:41:07.111Z,17.73
2023-02-22T21:44:10.315Z,18.10
2023-02-22T21:47:14.705Z,14.80
2023-02-22T21:50:20.023Z,17.00
2023-02-22T21:53:24.518Z,15.40
2023-02-22T21:56:28.194Z,19.60
2023-02-22T21:59:31.287Z,19.63
2023-02-22T22:02:38.067Z,22.10
2023-02-22T22:05:45.255Z,14.73
2023-02-22T22:08:48.408Z,19.30
2023-02-22T22:11:58.216Z,20.40
2023-02-22T22:15:03.157Z,14.83
2023-02-22T22:18:08.151Z,16.73
2023-02-22T22:21:17.934Z,17.17
2023-02-22T22:24:22.669Z,28.03
2023-02-22T22:27:25.673Z,21.13
2023-02-22T22:30:28.958Z,19.77
2023-02-22T22:33:33.705Z,21.00
2023-02-22T22:36:37.686Z,21.33
2023-02-22T22:39:40.665Z,18.10
2023-02-22T22:42:45.212Z,23.50
2023-02-22T22:45:48.199Z,27.63
2023-02-22T22:48:55.717Z,28.47
2023-02-22T22:51:58.717Z,26.20
2023-02-22T22:55:01.804Z,23.93
2023-02-22T22:58:04.871Z,23.80
2023-02-22T23:01:07.959Z,22.37
2023-02-22T23:04:16.365Z,23.53
2023-02-22T23:07:21.238Z,22.77
2023-02-22T23:10:27.487Z,20.83
2023-02-22T23:13:30.438Z,22.13
2023-02-22T23:16:33.656Z,22.70
2023-02-22T23:19:39.616Z,26.70
2023-02-22T23:22:47.358Z,19.53
2023-02-22T23:25:51.426Z,22.77
2023-02-22T23:28:56.822Z,22.27
2023-02-22T23:31:59.940Z,26.27
2023-02-22T23:35:04.557Z,23.53
2023-02-22T23:38:09.489Z,23.87
2023-02-22T23:41:18.201Z,21.90
2023-02-22T23:44:22.051Z,32.23
2023-02-22T23:47:25.052Z,21.10
2023-02-22T23:50:32.032Z,25.10
2023-02-22T23:53:37.348Z,22.10
2023-02-22T23:56:47.007Z,28.47
2023-02-22T23:59:51.314Z,22.40
